createdAt,value
2023-05-13T00:00:38.529Z,1734.00
2023-05-13T00:01:38.714Z,1740.00
2023-05-13T00:02:38.667Z,1749.00
2023-05-13T00:03:38.769Z,1741.00
2023-05-13T00:04:38.690Z,1746.00
2023-05-13T00:05:38.716Z,1747.00
2023-05-13T00:06:38.826Z,1740.00
2023-05-13T00:07:38.750Z,1743.00
2023-05-13T00:08:38.721Z,1737.00
2023-05-13T00:09:38.726Z,1756.00
2023-05-13T00:10:38.739Z,1746.00
2023-05-13T00:11:38.787Z,1738.00
2023-05-13T00:12:38.807Z,1736.00
2023-05-13T00:13:38.832Z,1754.00
2023-05-13T00:14:38.847Z,1741.00
2023-05-13T00:15:38.852Z,1738.00
2023-05-13T00:16:38.915Z,1734.00
2023-05-13T00:17:38.942Z,1729.00
2023-05-13T00:18:38.917Z,1737.00
2023-05-13T00:19:38.931Z,1726.00
2023-05-13T00:20:38.947Z,1725.00
2023-05-13T00:21:39.012Z,1720.00
2023-05-13T00:22:38.969Z,1725.00
2023-05-13T00:23:39.003Z,1721.00
2023-05-13T00:24:39.007Z,1730.00
2023-05-13T00:25:39.028Z,1733.00
2023-05-13T00:26:39.076Z,1727.00
2023-05-13T00:27:39.097Z,1725.00
2023-05-13T00:28:39.072Z,1737.00
2023-05-13T00:29:39.104Z,1731.00
2023-05-13T00:30:39.105Z,1735.00
2023-05-13T00:31:39.200Z,1723.00
2023-05-13T00:32:39.164Z,1721.00
2023-05-13T00:33:39.186Z,1732.00
2023-05-13T00:34:39.229Z,1723.00
2023-05-13T00:35:39.179Z,1719.00
2023-05-13T00:36:39.265Z,1716.00
2023-05-13T00:37:39.259Z,1728.00
2023-05-13T00:38:39.272Z,1721.00
2023-05-13T00:39:39.266Z,1711.00
2023-05-13T00:40:39.262Z,1717.00
2023-05-13T00:41:39.283Z,1718.00
2023-05-13T00:42:39.340Z,1708.00
2023-05-13T00:43:39.337Z,1705.00
2023-05-13T00:44:39.391Z,1716.00
2023-05-13T00:45:39.447Z,1707.00
2023-05-13T00:46:39.438Z,1713.00
2023-05-13T00:47:39.437Z,1706.00
2023-05-13T00:48:39.463Z,1700.00
2023-05-13T00:49:39.433Z,1706.00
2023-05-13T00:50:40.064Z,1711.00
2023-05-13T00:51:39.507Z,1699.00
2023-05-13T00:52:39.507Z,1705.00
2023-05-13T00:53:39.510Z,1704.00
2023-05-13T00:54:39.526Z,1709.00
2023-05-13T00:55:39.588Z,1688.00
2023-05-13T00:56:39.595Z,1702.00
2023-05-13T00:57:39.621Z,1712.00
2023-05-13T00:58:39.606Z,1703.00
2023-05-13T00:59:39.603Z,1696.00
2023-05-13T01:00:39.629Z,1686.00
2023-05-13T01:01:39.789Z,1704.00
2023-05-13T01:02:39.800Z,1698.00
2023-05-13T01:03:39.861Z,1703.00
2023-05-13T01:04:39.743Z,1700.00
2023-05-13T01:05:39.759Z,1696.00
2023-05-13T01:06:39.757Z,1695.00
2023-05-13T01:07:39.842Z,1684.00
2023-05-13T01:08:39.844Z,1684.00
2023-05-13T01:09:39.867Z,1696.00
2023-05-13T01:10:39.906Z,1691.00
2023-05-13T01:11:39.892Z,1688.00
2023-05-13T01:12:39.952Z,1694.00
2023-05-13T01:13:39.957Z,1697.00
2023-05-13T01:14:39.959Z,1688.00
2023-05-13T01:15:39.973Z,1690.00
2023-05-13T01:16:40.057Z,1672.00
2023-05-13T01:17:40.089Z,1674.00
2023-05-13T01:18:40.069Z,1681.00
2023-05-13T01:19:40.060Z,1665.00
2023-05-13T01:20:40.216Z,1684.00
2023-05-13T01:21:40.113Z,1676.00
2023-05-13T01:22:40.175Z,1682.00
2023-05-13T01:23:40.201Z,1680.00
2023-05-13T01:24:40.240Z,1684.00
2023-05-13T01:25:40.204Z,1688.00
2023-05-13T01:26:40.230Z,1661.00
2023-05-13T01:27:40.301Z,1677.00
2023-05-13T01:28:40.556Z,1679.00
2023-05-13T01:29:40.426Z,1672.00
2023-05-13T01:30:40.471Z,1675.00
2023-05-13T01:31:40.434Z,1683.00
2023-05-13T01:32:40.440Z,1665.00
2023-05-13T01:33:40.449Z,1666.00
2023-05-13T01:34:40.489Z,1671.00
2023-05-13T01:35:40.518Z,1670.00
2023-05-13T01:36:40.542Z,1667.00
2023-05-13T01:37:40.590Z,1660.00
2023-05-13T01:38:40.623Z,1662.00
2023-05-13T01:39:40.681Z,1658.00
2023-05-13T01:40:40.702Z,1650.00
2023-05-13T01:41:40.703Z,1656.00
2023-05-13T01:42:40.859Z,1667.00
2023-05-13T01:43:40.866Z,1660.00
2023-05-13T01:44:40.813Z,1662.00
2023-05-13T01:45:40.836Z,1657.00
2023-05-13T01:46:40.889Z,1658.00
2023-05-13T01:47:40.927Z,1657.00
2023-05-13T01:48:40.902Z,1666.00
2023-05-13T01:49:40.944Z,1654.00
2023-05-13T01:50:40.968Z,1649.00
2023-05-13T01:51:40.994Z,1654.00
2023-05-13T01:52:41.026Z,1657.00
2023-05-13T01:53:41.097Z,1649.00
2023-05-13T01:54:41.075Z,1644.00
2023-05-13T01:55:41.153Z,1650.00
2023-05-13T01:56:41.154Z,1646.00
2023-05-13T01:57:41.210Z,1653.00
2023-05-13T01:58:41.228Z,1651.00
2023-05-13T01:59:41.248Z,1636.00
2023-05-13T02:00:41.315Z,1637.00
2023-05-13T02:01:41.369Z,1641.00
2023-05-13T02:02:41.379Z,1645.00
2023-05-13T02:03:41.513Z,1629.00
2023-05-13T02:04:41.405Z,1632.00
2023-05-13T02:05:41.465Z,1644.00
2023-05-13T02:06:41.445Z,1646.00
2023-05-13T02:07:41.545Z,1638.00
2023-05-13T02:08:41.546Z,1648.00
2023-05-13T02:09:41.540Z,1643.00
2023-05-13T02:10:41.618Z,1634.00
2023-05-13T02:11:41.629Z,1637.00
2023-05-13T02:12:41.684Z,1627.00
2023-05-13T02:13:41.690Z,1630.00
2023-05-13T02:14:41.757Z,1637.00
2023-05-13T02:15:41.762Z,1621.00
2023-05-13T02:16:41.836Z,1627.00
2023-05-13T02:17:41.851Z,1626.00
2023-05-13T02:18:41.882Z,1625.00
2023-05-13T02:19:41.912Z,1643.00
2023-05-13T02:20:41.885Z,1631.00
2023-05-13T02:21:41.942Z,1621.00
2023-05-13T02:22:41.971Z,1642.00
2023-05-13T02:23:42.012Z,1628.00
2023-05-13T02:24:42.021Z,1621.00
2023-05-13T02:25:42.056Z,1627.00
2023-05-13T02:26:42.109Z,1612.00
2023-05-13T02:27:42.156Z,1633.00
2023-05-13T02:28:42.168Z,1632.00
2023-05-13T02:29:42.206Z,1635.00
2023-05-13T02:30:42.271Z,1624.00
2023-05-13T02:31:42.369Z,1628.00
2023-05-13T02:32:42.381Z,1625.00
2023-05-13T02:33:42.338Z,1607.00
2023-05-13T02:34:42.418Z,1616.00
2023-05-13T02:35:42.447Z,1632.00
2023-05-13T02:36:42.461Z,1610.00
2023-05-13T02:37:42.515Z,1607.00
2023-05-13T02:38:42.563Z,1606.00
2023-05-13T02:39:42.574Z,1616.00
2023-05-13T02:40:42.588Z,1617.00
2023-05-13T02:41:42.656Z,1601.00
2023-05-13T02:42:42.685Z,1607.00
2023-05-13T02:43:42.747Z,1596.00
2023-05-13T02:44:42.741Z,1605.00
2023-05-13T02:45:42.779Z,1595.00
2023-05-13T02:46:42.808Z,1609.00
2023-05-13T02:47:42.905Z,1608.00
2023-05-13T02:48:42.899Z,1593.00
2023-05-13T02:49:42.952Z,1588.00
2023-05-13T02:50:42.991Z,1596.00
2023-05-13T02:51:43.026Z,1601.00
2023-05-13T02:52:43.037Z,1595.00
2023-05-13T02:53:43.078Z,1598.00
2023-05-13T02:54:43.156Z,1602.00
2023-05-13T02:55:43.152Z,1583.00
2023-05-13T02:56:43.159Z,1594.00
2023-05-13T02:57:43.220Z,1600.00
2023-05-13T02:58:43.280Z,1590.00
2023-05-13T02:59:43.319Z,1595.00
2023-05-13T03:00:43.332Z,1598.00
2023-05-13T03:01:43.404Z,1592.00
2023-05-13T03:02:43.519Z,1593.00
2023-05-13T03:03:43.462Z,1585.00
2023-05-13T03:04:43.451Z,1584.00
2023-05-13T03:05:43.514Z,1594.00
2023-05-13T03:06:43.512Z,1580.00
2023-05-13T03:07:43.586Z,1589.00
2023-05-13T03:08:43.596Z,1595.00
2023-05-13T03:09:43.639Z,1593.00
2023-05-13T03:10:43.678Z,1594.00
2023-05-13T03:11:43.689Z,1592.00
2023-05-13T03:12:43.728Z,1593.00
2023-05-13T03:13:43.778Z,1572.00
2023-05-13T03:14:43.763Z,1572.00
2023-05-13T03:15:44.712Z,1583.00
2023-05-13T03:16:43.852Z,1589.00
2023-05-13T03:17:43.858Z,1589.00
2023-05-13T03:18:43.858Z,1595.00
2023-05-13T03:19:43.918Z,1581.00
2023-05-13T03:20:43.942Z,1588.00
2023-05-13T03:21:43.947Z,1572.00
2023-05-13T03:22:43.998Z,1577.00
2023-05-13T03:23:43.995Z,1580.00
2023-05-13T03:24:44.050Z,1560.00
2023-05-13T03:25:44.043Z,1561.00
2023-05-13T03:26:44.077Z,1571.00
2023-05-13T03:27:44.123Z,1574.00
2023-05-13T03:28:44.121Z,1561.00
2023-05-13T03:29:44.157Z,1568.00
2023-05-13T03:30:44.174Z,1571.00
2023-05-13T03:31:44.297Z,1578.00
2023-05-13T03:32:44.377Z,1564.00
2023-05-13T03:33:44.273Z,1575.00
2023-05-13T03:34:44.275Z,1558.00
2023-05-13T03:35:44.279Z,1567.00
2023-05-13T03:36:44.359Z,1565.00
2023-05-13T03:37:44.366Z,1563.00
2023-05-13T03:38:44.414Z,1561.00
2023-05-13T03:39:44.473Z,1563.00
2023-05-13T03:40:44.488Z,1554.00
2023-05-13T03:41:44.511Z,1549.00
2023-05-13T03:42:44.541Z,1561.00
2023-05-13T03:43:44.547Z,1560.00
2023-05-13T03:44:44.614Z,1557.00
2023-05-13T03:45:44.634Z,1551.00
2023-05-13T03:46:44.678Z,1543.00
2023-05-13T03:47:44.715Z,1551.00
2023-05-13T03:48:44.681Z,1557.00
2023-05-13T03:49:44.698Z,1555.00
2023-05-13T03:50:44.762Z,1562.00
2023-05-13T03:51:44.798Z,1554.00
2023-05-13T03:52:46.858Z,1562.00
2023-05-13T03:53:44.828Z,1559.00
2023-05-13T03:54:44.841Z,1547.00
2023-05-13T03:55:44.899Z,1551.00
2023-05-13T03:56:44.907Z,1550.00
2023-05-13T03:57:44.967Z,1537.00
2023-05-13T03:58:45.018Z,1547.00
2023-05-13T03:59:45.019Z,1535.00
2023-05-13T04:00:45.089Z,1536.00
2023-05-13T04:01:45.114Z,1533.00
2023-05-13T04:02:45.411Z,1523.00
2023-05-13T04:03:45.185Z,1531.00
2023-05-13T04:04:45.189Z,1539.00
2023-05-13T04:05:45.205Z,1545.00
2023-05-13T04:06:45.204Z,1529.00
2023-05-13T04:07:45.247Z,1520.00
2023-05-13T04:08:45.289Z,1529.00
2023-05-13T04:09:45.306Z,1539.00
2023-05-13T04:10:45.315Z,1544.00
2023-05-13T04:11:45.364Z,1551.00
2023-05-13T04:12:45.384Z,1536.00
2023-05-13T04:13:45.413Z,1533.00
2023-05-13T04:14:45.452Z,1518.00
2023-05-13T04:15:45.477Z,1529.00
2023-05-13T04:16:45.577Z,1521.00
2023-05-13T04:17:45.582Z,1528.00
2023-05-13T04:18:45.656Z,1526.00
2023-05-13T04:19:45.607Z,1522.00
2023-05-13T04:20:45.598Z,1527.00
2023-05-13T04:21:45.677Z,1530.00
2023-05-13T04:22:45.650Z,1531.00
2023-05-13T04:23:45.703Z,1528.00
2023-05-13T04:24:45.740Z,1529.00
2023-05-13T04:25:45.758Z,1533.00
2023-05-13T04:26:45.802Z,1539.00
2023-05-13T04:27:45.791Z,1541.00
2023-05-13T04:28:45.841Z,1529.00
2023-05-13T04:29:45.835Z,1531.00
2023-05-13T04:30:45.899Z,1505.00
2023-05-13T04:31:46.017Z,1511.00
2023-05-13T04:32:45.977Z,1505.00
2023-05-13T04:33:45.974Z,1509.00
2023-05-13T04:34:45.984Z,1510.00
2023-05-13T04:35:46.037Z,1528.00
2023-05-13T04:36:46.102Z,1511.00
2023-05-13T04:37:46.067Z,1508.00
2023-05-13T04:38:46.106Z,1511.00
2023-05-13T04:39:46.112Z,1521.00
2023-05-13T04:40:46.141Z,1524.00
2023-05-13T04:41:46.192Z,1505.00
2023-05-13T04:42:46.212Z,1502.00
2023-05-13T04:43:46.240Z,1487.00
2023-05-13T04:44:46.274Z,1499.00
2023-05-13T04:45:46.294Z,1513.00
2023-05-13T04:46:46.374Z,1504.00
2023-05-13T04:47:46.383Z,1515.00
2023-05-13T04:48:46.408Z,1514.00
2023-05-13T04:49:46.428Z,1496.00
2023-05-13T04:50:46.445Z,1501.00
2023-05-13T04:51:46.472Z,1506.00
2023-05-13T04:52:46.481Z,1493.00
2023-05-13T04:53:46.526Z,1500.00
2023-05-13T04:54:46.571Z,1493.00
2023-05-13T04:55:46.555Z,1500.00
2023-05-13T04:56:46.602Z,1506.00
2023-05-13T04:57:46.638Z,1491.00
2023-05-13T04:58:46.654Z,1499.00
2023-05-13T04:59:46.682Z,1511.00
2023-05-13T05:00:46.716Z,1492.00
2023-05-13T05:01:46.830Z,1496.00
2023-05-13T05:02:46.883Z,1488.00
2023-05-13T05:03:46.836Z,1500.00
2023-05-13T05:04:46.867Z,1488.00
2023-05-13T05:05:46.954Z,1480.00
2023-05-13T05:06:46.933Z,1488.00
2023-05-13T05:07:46.955Z,1502.00
2023-05-13T05:08:46.988Z,1494.00
2023-05-13T05:09:47.044Z,1496.00
2023-05-13T05:10:47.025Z,1489.00
2023-05-13T05:11:47.061Z,1489.00
2023-05-13T05:12:47.113Z,1497.00
2023-05-13T05:13:47.125Z,1477.00
2023-05-13T05:14:47.182Z,1490.00
2023-05-13T05:15:47.187Z,1487.00
2023-05-13T05:16:47.242Z,1479.00
2023-05-13T05:17:47.369Z,1488.00
2023-05-13T05:18:47.456Z,1478.00
2023-05-13T05:19:47.306Z,1490.00
2023-05-13T05:20:47.351Z,1481.00
2023-05-13T05:21:47.372Z,1471.00
2023-05-13T05:22:47.417Z,1481.00
2023-05-13T05:23:47.485Z,1484.00
2023-05-13T05:24:47.468Z,1466.00
2023-05-13T05:25:48.585Z,1456.00
2023-05-13T05:26:47.527Z,1465.00
2023-05-13T05:27:47.585Z,1485.00
2023-05-13T05:28:47.614Z,1476.00
2023-05-13T05:29:47.616Z,1471.00
2023-05-13T05:30:47.628Z,1472.00
2023-05-13T05:31:47.719Z,1472.00
2023-05-13T05:32:47.723Z,1486.00
2023-05-13T05:33:47.727Z,1462.00
2023-05-13T05:34:47.733Z,1469.00
2023-05-13T05:35:47.785Z,1458.00
2023-05-13T05:36:47.817Z,1477.00
2023-05-13T05:37:47.824Z,1467.00
2023-05-13T05:38:47.829Z,1472.00
2023-05-13T05:39:47.877Z,1469.00
2023-05-13T05:40:47.941Z,1461.00
2023-05-13T05:41:47.993Z,1461.00
2023-05-13T05:42:47.980Z,1458.00
2023-05-13T05:43:47.963Z,1456.00
2023-05-13T05:44:48.023Z,1451.00
2023-05-13T05:45:48.058Z,1448.00
2023-05-13T05:46:48.098Z,1455.00
2023-05-13T05:47:48.080Z,1455.00
2023-05-13T05:48:48.085Z,1465.00
2023-05-13T05:49:48.130Z,1457.00
2023-05-13T05:50:48.154Z,1458.00
2023-05-13T05:51:48.184Z,1471.00
2023-05-13T05:52:48.217Z,1470.00
2023-05-13T05:53:48.281Z,1458.00
2023-05-13T05:54:48.279Z,1456.00
2023-05-13T05:55:48.341Z,1452.00
2023-05-13T05:56:48.328Z,1464.00
2023-05-13T05:57:48.430Z,1447.00
2023-05-13T05:58:48.438Z,1457.00
2023-05-13T05:59:48.527Z,1441.00
2023-05-13T06:00:48.525Z,1441.00
2023-05-13T06:01:48.537Z,1452.00
2023-05-13T06:02:48.624Z,1441.00
2023-05-13T06:03:48.725Z,1451.00
2023-05-13T06:04:48.707Z,1436.00
2023-05-13T06:05:48.702Z,1447.00
2023-05-13T06:06:48.844Z,1441.00
2023-05-13T06:07:48.776Z,1444.00
2023-05-13T06:08:48.819Z,1444.00
2023-05-13T06:09:48.843Z,1444.00
2023-05-13T06:10:48.916Z,1445.00
2023-05-13T06:11:48.919Z,1450.00
2023-05-13T06:12:48.961Z,1438.00
2023-05-13T06:13:49.000Z,1451.00
2023-05-13T06:14:49.027Z,1436.00
2023-05-13T06:15:49.151Z,1434.00
2023-05-13T06:16:49.080Z,1440.00
2023-05-13T06:17:49.217Z,1429.00
2023-05-13T06:18:49.213Z,1440.00
2023-05-13T06:19:49.246Z,1430.00
2023-05-13T06:20:49.250Z,1446.00
2023-05-13T06:21:49.278Z,1436.00
2023-05-13T06:22:49.337Z,1415.00
2023-05-13T06:23:49.372Z,1432.00
2023-05-13T06:24:49.374Z,1435.00
2023-05-13T06:25:49.646Z,1422.00
2023-05-13T06:26:49.465Z,1433.00
2023-05-13T06:27:49.492Z,1425.00
2023-05-13T06:28:49.546Z,1430.00
2023-05-13T06:29:49.548Z,1422.00
2023-05-13T06:30:49.624Z,1413.00
2023-05-13T06:31:49.839Z,1442.00
2023-05-13T06:32:57.756Z,1418.00
2023-05-13T06:33:50.680Z,1420.00
2023-05-13T06:34:49.662Z,1423.00
2023-05-13T06:35:49.718Z,1428.00
2023-05-13T06:36:49.658Z,1428.00
2023-05-13T06:37:49.628Z,1427.00
2023-05-13T06:38:49.642Z,1418.00
2023-05-13T06:39:49.616Z,1415.00
2023-05-13T06:40:49.605Z,1429.00
2023-05-13T06:41:49.633Z,1431.00
2023-05-13T06:42:49.647Z,1442.00
2023-05-13T06:43:49.646Z,1411.00
2023-05-13T06:44:49.602Z,1395.00
2023-05-13T06:45:49.613Z,1412.00
2023-05-13T06:46:49.584Z,1399.00
2023-05-13T06:47:49.678Z,1402.00
2023-05-13T06:48:49.544Z,1398.00
2023-05-13T06:49:49.601Z,1415.00
2023-05-13T06:50:49.657Z,1388.00
2023-05-13T06:51:49.649Z,1370.00
2023-05-13T06:52:49.710Z,1385.00
2023-05-13T06:53:49.756Z,1386.00
2023-05-13T06:54:49.746Z,1383.00
2023-05-13T06:55:49.835Z,1385.00
2023-05-13T06:56:49.794Z,1374.00
2023-05-13T06:57:49.847Z,1390.00
2023-05-13T06:58:49.881Z,1379.00
2023-05-13T06:59:49.914Z,1383.00
2023-05-13T07:00:50.004Z,1378.00
2023-05-13T07:01:50.021Z,1356.00
2023-05-13T07:02:50.033Z,1359.00
2023-05-13T07:03:50.096Z,1383.00
2023-05-13T07:04:50.059Z,1374.00
2023-05-13T07:05:50.095Z,1377.00
2023-05-13T07:06:50.139Z,1362.00
2023-05-13T07:07:50.174Z,1364.00
2023-05-13T07:08:50.217Z,1366.00
2023-05-13T07:09:50.236Z,1361.00
2023-05-13T07:10:50.270Z,1347.00
2023-05-13T07:11:50.304Z,1351.00
2023-05-13T07:12:50.359Z,1354.00
2023-05-13T07:13:50.499Z,1351.00
2023-05-13T07:14:50.393Z,1342.00
2023-05-13T07:15:50.422Z,1353.00
2023-05-13T07:16:50.583Z,1351.00
2023-05-13T07:17:50.692Z,1356.00
2023-05-13T07:18:50.666Z,1354.00
2023-05-13T07:19:50.564Z,1347.00
2023-05-13T07:20:50.627Z,1371.00
2023-05-13T07:21:50.628Z,1359.00
2023-05-13T07:22:50.681Z,1356.00
2023-05-13T07:23:50.686Z,1355.00
2023-05-13T07:24:50.682Z,1358.00
2023-05-13T07:25:50.705Z,1348.00
2023-05-13T07:26:50.721Z,1350.00
2023-05-13T07:27:50.771Z,1355.00
2023-05-13T07:28:50.778Z,1352.00
2023-05-13T07:29:50.806Z,1348.00
2023-05-13T07:30:50.921Z,1348.00
2023-05-13T07:31:50.966Z,1339.00
2023-05-13T07:32:53.216Z,1337.00
2023-05-13T07:33:50.882Z,1350.00
2023-05-13T07:34:50.869Z,1344.00
2023-05-13T07:35:50.876Z,1349.00
2023-05-13T07:36:50.835Z,1331.00
2023-05-13T07:37:50.864Z,1329.00
2023-05-13T07:38:50.872Z,1331.00
2023-05-13T07:39:50.825Z,1333.00
2023-05-13T07:40:50.837Z,1331.00
2023-05-13T07:41:50.873Z,1320.00
2023-05-13T07:42:50.819Z,1328.00
2023-05-13T07:43:50.825Z,1312.00
2023-05-13T07:44:50.890Z,1315.00
2023-05-13T07:45:50.838Z,1314.00
2023-05-13T07:46:50.878Z,1315.00
2023-05-13T07:47:50.874Z,1317.00
2023-05-13T07:48:50.781Z,1313.00
2023-05-13T07:49:50.924Z,1320.00
2023-05-13T07:50:50.739Z,1307.00
2023-05-13T07:51:50.804Z,1324.00
2023-05-13T07:52:50.740Z,1311.00
2023-05-13T07:53:50.734Z,1308.00
2023-05-13T07:54:50.723Z,1299.00
2023-05-13T07:55:50.743Z,1308.00
2023-05-13T07:56:50.786Z,1305.00
2023-05-13T07:57:50.717Z,1302.00
2023-05-13T07:58:50.737Z,1308.00
2023-05-13T07:59:50.689Z,1305.00
2023-05-13T08:00:50.696Z,1321.00
2023-05-13T08:01:50.672Z,1314.00
2023-05-13T08:02:50.745Z,1315.00
2023-05-13T08:03:50.749Z,1317.00
2023-05-13T08:04:50.688Z,1322.00
2023-05-13T08:05:50.635Z,1319.00
2023-05-13T08:06:50.646Z,1320.00
2023-05-13T08:07:50.632Z,1316.00
2023-05-13T08:08:50.626Z,1322.00
2023-05-13T08:09:50.652Z,1324.00
2023-05-13T08:10:50.595Z,1325.00
2023-05-13T08:11:50.614Z,1319.00
2023-05-13T08:12:50.616Z,1309.00
2023-05-13T08:13:50.592Z,1307.00
2023-05-13T08:14:50.555Z,1310.00
2023-05-13T08:15:50.572Z,1299.00
2023-05-13T08:16:50.681Z,1313.00
2023-05-13T08:17:50.577Z,1312.00
2023-05-13T08:18:50.606Z,1302.00
2023-05-13T08:19:50.559Z,1315.00
2023-05-13T08:20:50.515Z,1292.00
2023-05-13T08:21:50.523Z,1309.00
2023-05-13T08:22:50.544Z,1310.00
2023-05-13T08:23:50.479Z,1318.00
2023-05-13T08:24:50.489Z,1306.00
2023-05-13T08:25:50.493Z,1293.00
2023-05-13T08:26:50.456Z,1306.00
2023-05-13T08:27:50.479Z,1309.00
2023-05-13T08:28:54.297Z,1300.00
2023-05-13T08:29:50.552Z,1302.00
2023-05-13T08:30:50.452Z,1303.00
2023-05-13T08:31:50.450Z,1304.00
2023-05-13T08:32:50.450Z,1310.00
2023-05-13T08:33:50.471Z,1319.00
2023-05-13T08:34:50.430Z,1315.00
2023-05-13T08:35:50.412Z,1313.00
2023-05-13T08:36:50.428Z,1314.00
2023-05-13T08:37:50.422Z,1318.00
2023-05-13T08:38:50.388Z,1304.00
2023-05-13T08:39:50.383Z,1312.00
2023-05-13T08:40:50.430Z,1316.00
2023-05-13T08:41:50.404Z,1317.00
2023-05-13T08:42:50.357Z,1312.00
2023-05-13T08:43:50.386Z,1310.00
2023-05-13T08:44:50.338Z,1321.00
2023-05-13T08:45:50.382Z,1318.00
2023-05-13T08:46:50.329Z,1309.00
2023-05-13T08:47:50.385Z,1317.00
2023-05-13T08:48:50.340Z,1323.00
2023-05-13T08:49:50.321Z,1311.00
2023-05-13T08:50:50.341Z,1303.00
2023-05-13T08:51:50.300Z,1317.00
2023-05-13T08:52:50.276Z,1304.00
2023-05-13T08:53:50.343Z,1323.00
2023-05-13T08:54:50.249Z,1297.00
2023-05-13T08:55:50.298Z,1311.00
2023-05-13T08:56:50.251Z,1304.00
2023-05-13T08:57:50.279Z,1307.00
2023-05-13T08:58:50.238Z,1311.00
2023-05-13T08:59:50.240Z,1312.00
2023-05-13T09:00:50.233Z,1314.00
2023-05-13T09:01:50.313Z,1305.00
2023-05-13T09:02:50.262Z,1307.00
2023-05-13T09:03:50.210Z,1315.00
2023-05-13T09:04:50.268Z,1315.00
2023-05-13T09:05:50.228Z,1313.00
2023-05-13T09:06:50.190Z,1313.00
2023-05-13T09:07:50.213Z,1298.00
2023-05-13T09:08:50.171Z,1311.00
2023-05-13T09:09:50.180Z,1292.00
2023-05-13T09:10:50.185Z,1297.00
2023-05-13T09:11:50.154Z,1291.00
2023-05-13T09:12:50.180Z,1293.00
2023-05-13T09:13:50.137Z,1305.00
2023-05-13T09:14:50.151Z,1310.00
2023-05-13T09:15:50.153Z,1299.00
2023-05-13T09:16:50.125Z,1305.00
2023-05-13T09:17:50.314Z,1288.00
2023-05-13T09:18:50.207Z,1290.00
2023-05-13T09:19:50.275Z,1301.00
2023-05-13T09:20:50.080Z,1297.00
2023-05-13T09:21:50.087Z,1294.00
2023-05-13T09:22:50.086Z,1300.00
2023-05-13T09:23:50.098Z,1304.00
2023-05-13T09:24:50.075Z,1303.00
2023-05-13T09:25:50.027Z,1314.00
2023-05-13T09:26:50.056Z,1296.00
2023-05-13T09:27:50.019Z,1290.00
2023-05-13T09:28:50.044Z,1290.00
2023-05-13T09:29:50.038Z,1289.00
2023-05-13T09:30:50.035Z,1310.00
2023-05-13T09:31:50.026Z,1304.00
2023-05-13T09:32:50.004Z,1289.00
2023-05-13T09:33:50.030Z,1305.00
2023-05-13T09:34:49.992Z,1299.00
2023-05-13T09:35:49.983Z,1301.00
2023-05-13T09:36:51.232Z,1300.00
2023-05-13T09:37:49.955Z,1308.00
2023-05-13T09:38:50.003Z,1310.00
2023-05-13T09:39:49.942Z,1288.00
2023-05-13T09:40:49.988Z,1284.00
2023-05-13T09:41:49.925Z,1302.00
2023-05-13T09:42:49.994Z,1286.00
2023-05-13T09:43:49.965Z,1312.00
2023-05-13T09:44:50.766Z,1303.00
2023-05-13T09:45:50.038Z,1307.00
2023-05-13T09:46:50.059Z,1310.00
2023-05-13T09:47:50.084Z,1295.00
2023-05-13T09:48:50.167Z,1285.00
2023-05-13T09:49:50.221Z,1288.00
2023-05-13T09:50:50.291Z,1298.00
2023-05-13T09:51:50.303Z,1292.00
2023-05-13T09:52:50.387Z,1298.00
2023-05-13T09:53:50.392Z,1304.00
2023-05-13T09:54:50.468Z,1293.00
2023-05-13T09:55:50.597Z,1296.00
2023-05-13T09:56:50.590Z,1288.00
2023-05-13T09:57:50.752Z,1307.00
2023-05-13T09:58:50.779Z,1289.00
2023-05-13T09:59:50.779Z,1298.00
2023-05-13T10:00:51.095Z,1289.00
2023-05-13T10:01:51.034Z,1300.00
2023-05-13T10:02:50.985Z,1293.00
2023-05-13T10:03:51.123Z,1291.00
2023-05-13T10:04:51.108Z,1299.00
2023-05-13T10:05:51.211Z,1305.00
2023-05-13T10:06:51.226Z,1294.00
2023-05-13T10:07:51.287Z,1297.00
2023-05-13T10:08:51.324Z,1284.00
2023-05-13T10:09:51.402Z,1298.00
2023-05-13T10:10:51.458Z,1294.00
2023-05-13T10:11:51.520Z,1298.00
2023-05-13T10:12:51.573Z,1289.00
2023-05-13T10:13:51.640Z,1287.00
2023-05-13T10:14:51.678Z,1290.00
2023-05-13T10:15:51.727Z,1299.00
2023-05-13T10:16:51.885Z,1294.00
2023-05-13T10:17:51.893Z,1304.00
2023-05-13T10:18:51.948Z,1285.00
2023-05-13T10:19:51.931Z,1296.00
2023-05-13T10:20:52.006Z,1288.00
2023-05-13T10:21:52.027Z,1287.00
2023-05-13T10:22:52.102Z,1297.00
2023-05-13T10:23:52.137Z,1287.00
2023-05-13T10:24:52.193Z,1292.00
2023-05-13T10:25:52.233Z,1281.00
2023-05-13T10:26:52.362Z,1282.00
2023-05-13T10:27:52.398Z,1287.00
2023-05-13T10:28:52.399Z,1285.00
2023-05-13T10:29:52.407Z,1284.00
2023-05-13T10:30:52.613Z,1279.00
2023-05-13T10:31:52.559Z,1284.00
2023-05-13T10:32:52.786Z,1280.00
2023-05-13T10:33:52.632Z,1276.00
2023-05-13T10:34:52.658Z,1275.00
2023-05-13T10:35:52.702Z,1270.00
2023-05-13T10:36:52.777Z,1270.00
2023-05-13T10:37:52.770Z,1266.00
2023-05-13T10:38:52.847Z,1275.00
2023-05-13T10:39:52.859Z,1269.00
2023-05-13T10:40:52.983Z,1261.00
2023-05-13T10:41:52.988Z,1256.00
2023-05-13T10:42:52.999Z,1249.00
2023-05-13T10:43:53.089Z,1259.00
2023-05-13T10:44:53.119Z,1245.00
2023-05-13T10:45:53.213Z,1260.00
2023-05-13T10:46:53.267Z,1254.00
2023-05-13T10:47:53.337Z,1252.00
2023-05-13T10:48:53.316Z,1238.00
2023-05-13T10:49:53.389Z,1242.00
2023-05-13T10:50:53.413Z,1237.00
2023-05-13T10:51:53.435Z,1245.00
2023-05-13T10:52:53.463Z,1228.00
2023-05-13T10:53:53.567Z,1249.00
2023-05-13T10:54:53.567Z,1239.00
2023-05-13T10:55:53.633Z,1237.00
2023-05-13T10:56:53.610Z,1226.00
2023-05-13T10:57:53.667Z,1230.00
2023-05-13T10:58:53.695Z,1234.00
2023-05-13T10:59:53.747Z,1220.00
2023-05-13T11:00:53.817Z,1232.00
2023-05-13T11:01:53.878Z,1232.00
2023-05-13T11:02:53.943Z,1218.00
2023-05-13T11:03:54.265Z,1217.00
2023-05-13T11:04:53.998Z,1215.00
2023-05-13T11:05:54.030Z,1218.00
2023-05-13T11:06:54.088Z,1210.00
2023-05-13T11:07:54.113Z,1219.00
2023-05-13T11:08:56.083Z,1209.00
2023-05-13T11:09:54.239Z,1220.00
2023-05-13T11:10:54.220Z,1213.00
2023-05-13T11:11:54.311Z,1204.00
2023-05-13T11:12:54.329Z,1216.00
2023-05-13T11:13:54.342Z,1207.00
2023-05-13T11:14:54.399Z,1209.00
2023-05-13T11:15:54.532Z,1208.00
2023-05-13T11:16:54.491Z,1192.00
2023-05-13T11:17:54.603Z,1204.00
2023-05-13T11:18:54.711Z,1192.00
2023-05-13T11:19:54.671Z,1197.00
2023-05-13T11:20:54.684Z,1196.00
2023-05-13T11:21:54.722Z,1185.00
2023-05-13T11:22:54.764Z,1182.00
2023-05-13T11:23:54.803Z,1195.00
2023-05-13T11:24:54.899Z,1186.00
2023-05-13T11:25:54.902Z,1194.00
2023-05-13T11:26:54.957Z,1182.00
2023-05-13T11:27:55.030Z,1178.00
2023-05-13T11:28:55.035Z,1168.00
2023-05-13T11:29:55.101Z,1180.00
2023-05-13T11:30:55.088Z,1175.00
2023-05-13T11:31:55.160Z,1154.00
2023-05-13T11:32:55.226Z,1162.00
2023-05-13T11:33:55.268Z,1153.00
2023-05-13T11:34:55.273Z,1165.00
2023-05-13T11:35:55.287Z,1162.00
2023-05-13T11:36:55.314Z,1161.00
2023-05-13T11:37:56.891Z,1153.00
2023-05-13T11:38:55.337Z,1156.00
2023-05-13T11:39:55.407Z,1151.00
2023-05-13T11:40:55.353Z,1154.00
2023-05-13T11:41:55.368Z,1139.00
2023-05-13T11:42:55.327Z,1145.00
2023-05-13T11:43:55.336Z,1145.00
2023-05-13T11:44:55.344Z,1147.00
2023-05-13T11:45:55.366Z,1142.00
2023-05-13T11:46:55.296Z,1126.00
2023-05-13T11:47:55.357Z,1128.00
2023-05-13T11:48:55.288Z,1136.00
2023-05-13T11:49:55.278Z,1138.00
2023-05-13T11:50:55.253Z,1132.00
2023-05-13T11:51:55.276Z,1125.00
2023-05-13T11:52:55.249Z,1126.00
2023-05-13T11:53:55.250Z,1123.00
2023-05-13T11:54:55.303Z,1107.00
2023-05-13T11:55:55.243Z,1121.00
2023-05-13T11:56:55.230Z,1110.00
2023-05-13T11:57:55.223Z,1103.00
2023-05-13T11:58:55.229Z,1103.00
2023-05-13T11:59:55.239Z,1101.00
2023-05-13T12:00:55.216Z,1108.00
2023-05-13T12:01:55.264Z,1111.00
2023-05-13T12:02:55.399Z,1103.00
2023-05-13T12:03:55.212Z,1103.00
2023-05-13T12:04:55.238Z,1100.00
2023-05-13T12:05:55.198Z,1098.00